sensor_id;sensor_type;location;lat;lon;timestamp;pressure;altitude;pressure_sealevel;temperature;humidity
80869;BME280;70295;40.182;44.498;2023-12-28T00:00:54;90630.97;;;7.14;51.42891
80869;BME280;70295;40.182;44.498;2023-12-28T00:02:54;90628.32;;;7.16;51.44258
80869;BME280;70295;40.182;44.498;2023-12-28T00:04:54;90630.61;;;7.16;51.42012
80869;BME280;70295;40.182;44.498;2023-12-28T00:06:54;90631.31;;;7.14;51.41914
80869;BME280;70295;40.182;44.498;2023-12-28T00:08:54;90634.34;;;7.13;51.4709
80869;BME280;70295;40.182;44.498;2023-12-28T00:10:54;90636.11;;;7.12;51.3166
80869;BME280;70295;40.182;44.498;2023-12-28T00:12:54;90633.63;;;7.08;51.21406
80869;BME280;70295;40.182;44.498;2023-12-28T00:14:54;90630.09;;;7.04;51.14375
80869;BME280;70295;40.182;44.498;2023-12-28T00:16:54;90627.25;;;7;51.20332
80869;BME280;70295;40.182;44.498;2023-12-28T00:18:54;90625.28;;;6.99;51.25703
80869;BME280;70295;40.182;44.498;2023-12-28T00:20:54;90620.16;;;6.96;51.23164
80869;BME280;70295;40.182;44.498;2023-12-28T00:22:54;90614.14;;;6.93;51.23848
80869;BME280;70295;40.182;44.498;2023-12-28T00:24:54;90610.24;;;6.9;51.28047
80869;BME280;70295;40.182;44.498;2023-12-28T00:26:54;90611.65;;;6.89;51.3
80869;BME280;70295;40.182;44.498;2023-12-28T00:28:54;90612.35;;;6.87;51.28535
80869;BME280;70295;40.182;44.498;2023-12-28T00:30:54;90609.37;;;6.84;51.33809
80869;BME280;70295;40.182;44.498;2023-12-28T00:32:54;90604.05;;;6.81;51.39961
80869;BME280;70295;40.182;44.498;2023-12-28T00:34:54;90607.23;;;6.79;51.44062
80869;BME280;70295;40.182;44.498;2023-12-28T00:36:54;90606.16;;;6.78;51.41816
80869;BME280;70295;40.182;44.498;2023-12-28T00:38:54;90609.16;;;6.74;51.46797
80869;BME280;70295;40.182;44.498;2023-12-28T00:40:54;90604.05;;;6.72;51.43281
80869;BME280;70295;40.182;44.498;2023-12-28T00:48:51;90594.24;;;6.6;51.63691
80869;BME280;70295;40.182;44.498;2023-12-28T00:50:51;90594.63;;;6.59;51.72383
80869;BME280;70295;40.182;44.498;2023-12-28T00:52:51;90591.94;;;6.59;51.78926
80869;BME280;70295;40.182;44.498;2023-12-28T00:54:51;90591.08;;;6.6;51.8332
80869;BME280;70295;40.182;44.498;2023-12-28T00:56:51;90593.91;;;6.59;51.85469
80869;BME280;70295;40.182;44.498;2023-12-28T00:58:51;90589.48;;;6.58;51.87519
80869;BME280;70295;40.182;44.498;2023-12-28T01:00:51;90581.34;;;6.58;51.90742
80869;BME280;70295;40.182;44.498;2023-12-28T01:02:51;90584.36;;;6.57;51.91719
80869;BME280;70295;40.182;44.498;2023-12-28T01:04:51;90581.51;;;6.55;51.92598
80869;BME280;70295;40.182;44.498;2023-12-28T01:06:54;90578.86;;;6.53;51.94551
80869;BME280;70295;40.182;44.498;2023-12-28T01:08:51;90574.6;;;6.49;51.96309
80869;BME280;70295;40.182;44.498;2023-12-28T01:10:51;90571.42;;;6.48;52.03828
80869;BME280;70295;40.182;44.498;2023-12-28T01:12:51;90575.5;;;6.49;52.12715
80869;BME280;70295;40.182;44.498;2023-12-28T01:14:51;90576.89;;;6.49;52.20332
80869;BME280;70295;40.182;44.498;2023-12-28T01:16:51;90583.97;;;6.5;52.2375
80869;BME280;70295;40.182;44.498;2023-12-28T01:18:51;90589.8;;;6.5;52.2043
80869;BME280;70295;40.182;44.498;2023-12-28T01:20:51;90591.93;;;6.49;52.14863
80869;BME280;70295;40.182;44.498;2023-12-28T01:22:51;90588.92;;;6.48;52.13691
80869;BME280;70295;40.182;44.498;2023-12-28T01:24:51;90578.66;;;6.46;52.10176
80869;BME280;70295;40.182;44.498;2023-12-28T01:26:51;90574.58;;;6.45;52.13203
80869;BME280;70295;40.182;44.498;2023-12-28T01:28:51;90569.47;;;6.43;52.1623
80869;BME280;70295;40.182;44.498;2023-12-28T01:30:51;90568.05;;;6.43;52.1623
80869;BME280;70295;40.182;44.498;2023-12-28T01:32:51;90572.64;;;6.42;52.17305
80869;BME280;70295;40.182;44.498;2023-12-28T01:34:51;90578.11;;;6.42;52.17402
80869;BME280;70295;40.182;44.498;2023-12-28T01:36:51;90582.91;;;6.41;52.14961
80869;BME280;70295;40.182;44.498;2023-12-28T01:38:51;90581.13;;;6.38;52.16816
80869;BME280;70295;40.182;44.498;2023-12-28T01:40:51;90580.42;;;6.37;52.17695
80869;BME280;70295;40.182;44.498;2023-12-28T01:42:51;90579.36;;;6.33;52.26094
80869;BME280;70295;40.182;44.498;2023-12-28T01:44:51;90582.17;;;6.33;52.35762
80869;BME280;70295;40.182;44.498;2023-12-28T01:46:51;90581.81;;;6.34;52.3918
80869;BME280;70295;40.182;44.498;2023-12-28T01:48:51;90577.05;;;6.34;52.38203
80869;BME280;70295;40.182;44.498;2023-12-28T01:50:51;90578.63;;;6.34;52.32637
80869;BME280;70295;40.182;44.498;2023-12-28T01:52:51;90578.64;;;6.31;52.39961
80869;BME280;70295;40.182;44.498;2023-12-28T01:54:51;90583.4;;;6.32;52.49922
80869;BME280;70295;40.182;44.498;2023-12-28T01:56:51;90581.47;;;6.33;52.50019
80869;BME280;70295;40.182;44.498;2023-12-28T01:58:51;90583.06;;;6.32;52.48945
80869;BME280;70295;40.182;44.498;2023-12-28T02:00:51;90581.28;;;6.33;52.47871
80869;BME280;70295;40.182;44.498;2023-12-28T02:02:51;90579.88;;;6.33;52.43476
80869;BME280;70295;40.182;44.498;2023-12-28T02:04:51;90577.56;;;6.33;52.44551
80869;BME280;70295;40.182;44.498;2023-12-28T02:06:51;90578.83;;;6.33;52.41426
80869;BME280;70295;40.182;44.498;2023-12-28T02:08:51;90582.72;;;6.33;52.3918
80869;BME280;70295;40.182;44.498;2023-12-28T02:10:51;90580.41;;;6.33;52.40156
80869;BME280;70295;40.182;44.498;2023-12-28T02:12:51;90581.46;;;6.32;52.35664
80869;BME280;70295;40.182;44.498;2023-12-28T02:14:51;90580.58;;;6.27;52.28535
80869;BME280;70295;40.182;44.498;2023-12-28T02:16:56;90578.6;;;6.2;52.38594
80869;BME280;70295;40.182;44.498;2023-12-28T02:18:51;90573.81;;;6.18;52.48262
80869;BME280;70295;40.182;44.498;2023-12-28T02:20:51;90575.59;;;6.16;52.5666
80869;BME280;70295;40.182;44.498;2023-12-28T02:22:51;90575.77;;;6.16;52.63301
80869;BME280;70295;40.182;44.498;2023-12-28T02:26:51;90581.05;;;6.18;52.8
80869;BME280;70295;40.182;44.498;2023-12-28T02:28:51;90583.2;;;6.21;52.86738
80869;BME280;70295;40.182;44.498;2023-12-28T02:30:51;90582.84;;;6.23;52.80586
80869;BME280;70295;40.182;44.498;2023-12-28T02:32:55;90588.51;;;6.24;52.69746
80869;BME280;70295;40.182;44.498;2023-12-28T02:34:51;90590.11;;;6.26;52.69941
80869;BME280;70295;40.182;44.498;2023-12-28T02:36:51;90592.77;;;6.27;52.55976
80869;BME280;70295;40.182;44.498;2023-12-28T02:38:51;90592.58;;;6.27;52.61348
80869;BME280;70295;40.182;44.498;2023-12-28T02:40:51;90593.98;;;6.26;52.63301
80869;BME280;70295;40.182;44.498;2023-12-28T02:42:51;90593.47;;;6.25;52.65547
80869;BME280;70295;40.182;44.498;2023-12-28T02:44:51;90599.13;;;6.22;52.61836
80869;BME280;70295;40.182;44.498;2023-12-28T02:46:51;90595.92;;;6.19;52.74531
80869;BME280;70295;40.182;44.498;2023-12-28T02:49:12;90594.48;;;6.11;52.82344
80869;BME280;70295;40.182;44.498;2023-12-28T02:51:12;90595.36;;;6.11;52.86738
80869;BME280;70295;40.182;44.498;2023-12-28T02:53:12;90595.72;;;6.11;52.92207
80869;BME280;70295;40.182;44.498;2023-12-28T02:55:12;90597.48;;;6.12;52.91133
80869;BME280;70295;40.182;44.498;2023-12-28T02:57:12;90602.26;;;6.11;52.85664
80869;BME280;70295;40.182;44.498;2023-12-28T02:59:12;90603.84;;;6.09;52.90742
80869;BME280;70295;40.182;44.498;2023-12-28T03:01:12;90600.29;;;6.08;52.98359
80869;BME280;70295;40.182;44.498;2023-12-28T03:03:12;90601.91;;;6.09;53.06074
80869;BME280;70295;40.182;44.498;2023-12-28T03:05:12;90606.83;;;6.09;53.0832
80869;BME280;70295;40.182;44.498;2023-12-28T03:07:12;90609.13;;;6.09;52.98359
80869;BME280;70295;40.182;44.498;2023-12-28T03:09:12;90612.84;;;6.07;52.99336
80869;BME280;70295;40.182;44.498;2023-12-28T03:11:12;90618.68;;;6.07;53.05781
80869;BME280;70295;40.182;44.498;2023-12-28T03:13:12;90617.95;;;6.06;53.14473
80869;BME280;70295;40.182;44.498;2023-12-28T03:15:12;90623.44;;;6.04;53.175
80869;BME280;70295;40.182;44.498;2023-12-28T03:17:12;90622.55;;;6.04;53.21894
80869;BME280;70295;40.182;44.498;2023-12-28T03:19:12;90631.2;;;6.04;53.27363
80869;BME280;70295;40.182;44.498;2023-12-28T03:21:12;90633.14;;;6.03;53.2834
80869;BME280;70295;40.182;44.498;2023-12-28T03:23:12;90629.61;;;6.01;53.29121
80869;BME280;70295;40.182;44.498;2023-12-28T03:25:12;90631.73;;;6;53.30098
80869;BME280;70295;40.182;44.498;2023-12-28T03:27:12;90631.02;;;5.99;53.34394
80869;BME280;70295;40.182;44.498;2023-12-28T03:29:12;90626.4;;;5.98;53.41914
80869;BME280;70295;40.182;44.498;2023-12-28T03:31:12;90627.13;;;6;53.46406
80869;BME280;70295;40.182;44.498;2023-12-28T03:33:12;90621.66;;;6.01;53.3791
80869;BME280;70295;40.182;44.498;2023-12-28T03:35:12;90618.63;;;6;53.34492
80869;BME280;70295;40.182;44.498;2023-12-28T03:37:12;90617.58;;;5.99;53.44258
80869;BME280;70295;40.182;44.498;2023-12-28T03:39:12;90622.35;;;5.99;53.56269
80869;BME280;70295;40.182;44.498;2023-12-28T03:43:12;90624.66;;;6.01;53.55391
80869;BME280;70295;40.182;44.498;2023-12-28T03:45:12;90626.59;;;6.01;53.47773
80869;BME280;70295;40.182;44.498;2023-12-28T03:47:12;90625.84;;;5.92;53.43281
80869;BME280;70295;40.182;44.498;2023-12-28T03:49:12;90630.23;;;5.88;53.66719
80869;BME280;70295;40.182;44.498;2023-12-28T03:51:15;90634.67;;;5.88;53.73359
80869;BME280;70295;40.182;44.498;2023-12-28T03:53:12;90631.65;;;5.88;53.71211
80869;BME280;70295;40.182;44.498;2023-12-28T03:55:12;90632.92;;;5.91;53.72578
80869;BME280;70295;40.182;44.498;2023-12-28T03:57:12;90632.04;;;5.93;53.73848
80869;BME280;70295;40.182;44.498;2023-12-28T03:59:12;90631.31;;;5.93;53.69648
80869;BME280;70295;40.182;44.498;2023-12-28T04:01:12;90638.39;;;5.92;53.61836
80869;BME280;70295;40.182;44.498;2023-12-28T04:03:12;90645.28;;;5.91;53.61738
80869;BME280;70295;40.182;44.498;2023-12-28T04:05:12;90648.44;;;5.9;53.59297
80869;BME280;70295;40.182;44.498;2023-12-28T04:07:12;90640.66;;;5.88;53.58027
80869;BME280;70295;40.182;44.498;2023-12-28T04:09:12;90643.83;;;5.85;53.48945
80869;BME280;70295;40.182;44.498;2023-12-28T04:11:12;90632.3;;;5.8;53.59199
80869;BME280;70295;40.182;44.498;2023-12-28T04:13:11;90630.72;;;5.78;53.61055
80869;BME280;70295;40.182;44.498;2023-12-28T04:15:12;90632.46;;;5.75;53.7834
80869;BME280;70295;40.182;44.498;2023-12-28T04:17:11;90626.65;;;5.75;54.04512
80869;BME280;70295;40.182;44.498;2023-12-28T04:19:12;90622.77;;;5.77;54.13496
80869;BME280;70295;40.182;44.498;2023-12-28T04:21:12;90621.54;;;5.78;54.14668
80869;BME280;70295;40.182;44.498;2023-12-28T04:23:11;90621.89;;;5.78;54.1457
80869;BME280;70295;40.182;44.498;2023-12-28T04:25:11;90621.36;;;5.79;54.1584
80869;BME280;70295;40.182;44.498;2023-12-28T04:27:11;90625.45;;;5.81;54.11641
80869;BME280;70295;40.182;44.498;2023-12-28T04:29:11;90622.98;;;5.82;54.09687
80869;BME280;70295;40.182;44.498;2023-12-28T04:31:11;90626.67;;;5.8;54.05098
80869;BME280;70295;40.182;44.498;2023-12-28T04:33:11;90625.78;;;5.81;54.12812
80869;BME280;70295;40.182;44.498;2023-12-28T04:35:11;90625.78;;;5.8;54.16035
80869;BME280;70295;40.182;44.498;2023-12-28T04:37:11;90629.83;;;5.8;54.20332
80869;BME280;70295;40.182;44.498;2023-12-28T04:39:12;90628.25;;;5.8;54.21504
80869;BME280;70295;40.182;44.498;2023-12-28T04:41:11;90629.84;;;5.81;54.19355
80869;BME280;70295;40.182;44.498;2023-12-28T04:43:11;90632.3;;;5.8;54.16035
80869;BME280;70295;40.182;44.498;2023-12-28T04:45:11;90637.97;;;5.8;54.19258
80869;BME280;70295;40.182;44.498;2023-12-28T04:47:11;90641.67;;;5.8;54.24726
80869;BME280;70295;40.182;44.498;2023-12-28T04:49:11;90642.42;;;5.86;54.37422
80869;BME280;70295;40.182;44.498;2023-12-28T04:51:11;90649.88;;;5.92;54.50312
80869;BME280;70295;40.182;44.498;2023-12-28T04:53:11;90652.55;;;6;54.49141
80869;BME280;70295;40.182;44.498;2023-12-28T04:55:11;90648.33;;;6.04;54.25605
80869;BME280;70295;40.182;44.498;2023-12-28T04:57:11;90651.88;;;6.06;54.20527
80869;BME280;70295;40.182;44.498;2023-12-28T04:59:11;90642.02;;;6.11;54.22187
80869;BME280;70295;40.182;44.498;2023-12-28T05:01:11;90646.45;;;6.17;54.15254
80869;BME280;70295;40.182;44.498;2023-12-28T05:03:11;90645.77;;;6.19;54.03535
80869;BME280;70295;40.182;44.498;2023-12-28T05:05:12;90646.47;;;6.21;54.06953
80869;BME280;70295;40.182;44.498;2023-12-28T05:07:11;90657.8;;;6.23;54.10664
80869;BME280;70295;40.182;44.498;2023-12-28T05:09:11;90664.72;;;6.32;54.2375
80869;BME280;70295;40.182;44.498;2023-12-28T05:11:11;90655.73;;;6.41;54.27168
80869;BME280;70295;40.182;44.498;2023-12-28T05:13:11;90655.24;;;6.5;54.18281
80869;BME280;70295;40.182;44.498;2023-12-28T05:15:11;90656.48;;;6.55;54.11348
80869;BME280;70295;40.182;44.498;2023-12-28T05:17:11;90661.11;;;6.58;54.14961
80869;BME280;70295;40.182;44.498;2023-12-28T05:19:11;90670.16;;;6.67;54.39277
80869;BME280;70295;40.182;44.498;2023-12-28T05:21:12;90670.38;;;6.76;54.25019
80869;BME280;70295;40.182;44.498;2023-12-28T05:23:11;90671.26;;;6.78;54.00117
80869;BME280;70295;40.182;44.498;2023-12-28T05:25:11;90668.11;;;6.88;54.27656
80869;BME280;70295;40.182;44.498;2023-12-28T05:27:11;90662.3;;;7.05;54.29707
80869;BME280;70295;40.182;44.498;2023-12-28T05:29:11;90662.48;;;7.21;54.19844
80869;BME280;70295;40.182;44.498;2023-12-28T05:31:11;90669.41;;;7.39;54.04609
80869;BME280;70295;40.182;44.498;2023-12-28T05:33:11;90677.89;;;7.54;53.75703
80869;BME280;70295;40.182;44.498;2023-12-28T05:35:11;90686.92;;;7.67;53.50019
80869;BME280;70295;40.182;44.498;2023-12-28T05:37:11;90689.23;;;7.81;53.27754
80869;BME280;70295;40.182;44.498;2023-12-28T05:39:11;90684.6;;;7.91;52.88203
80869;BME280;70295;40.182;44.498;2023-12-28T05:41:11;90676.44;;;7.9;52.43281
80869;BME280;70295;40.182;44.498;2023-12-28T05:43:11;90678.77;;;7.84;52.07344
80869;BME280;70295;40.182;44.498;2023-12-28T05:45:11;90681.97;;;7.77;51.91133
80869;BME280;70295;40.182;44.498;2023-12-28T05:47:11;90676.48;;;7.71;51.83809
80869;BME280;70295;40.182;44.498;2023-12-28T05:49:11;90679.67;;;7.65;51.79805
80869;BME280;70295;40.182;44.498;2023-12-28T05:51:11;90693.14;;;7.61;51.77168
80869;BME280;70295;40.182;44.498;2023-12-28T05:53:11;90699.17;;;7.56;51.70918
80869;BME280;70295;40.182;44.498;2023-12-28T05:55:11;90693.86;;;7.53;51.71797
80869;BME280;70295;40.182;44.498;2023-12-28T05:57:11;90692.61;;;7.51;51.7043
80869;BME280;70295;40.182;44.498;2023-12-28T05:59:11;90699.87;;;7.5;51.71309
80869;BME280;70295;40.182;44.498;2023-12-28T06:01:11;90696.34;;;7.48;51.70039
80869;BME280;70295;40.182;44.498;2023-12-28T06:03:11;90690.48;;;7.46;51.71992
80869;BME280;70295;40.182;44.498;2023-12-28T06:05:11;90693.67;;;7.46;51.76387
80869;BME280;70295;40.182;44.498;2023-12-28T06:07:11;90691.19;;;7.48;51.84297
80869;BME280;70295;40.182;44.498;2023-12-28T06:09:11;90690.3;;;7.6;52.10957
80869;BME280;70295;40.182;44.498;2023-12-28T06:11:11;90685.34;;;7.78;51.96699
80869;BME280;70295;40.182;44.498;2023-12-28T06:13:11;90684.63;;;7.81;51.62129
80869;BME280;70295;40.182;44.498;2023-12-28T06:15:11;90693.5;;;7.78;51.45234
80869;BME280;70295;40.182;44.498;2023-12-28T06:17:11;90694.72;;;7.81;51.57637
80869;BME280;70295;40.182;44.498;2023-12-28T06:19:11;90692.72;;;8.1;52.20527
80869;BME280;70295;40.182;44.498;2023-12-28T06:21:11;90693.55;;;8.42;51.99043
80869;BME280;70295;40.182;44.498;2023-12-28T06:23:11;90692.97;;;8.55;51.52363
80869;BME280;70295;40.182;44.498;2023-12-28T06:25:11;90695.23;;;8.75;51.29414
80869;BME280;70295;40.182;44.498;2023-12-28T06:27:11;90697.59;;;9.01;51.36836
80869;BME280;70295;40.182;44.498;2023-12-28T06:29:11;90698.08;;;9.35;51.20137
80869;BME280;70295;40.182;44.498;2023-12-28T06:31:11;90699.37;;;9.58;50.5334
80869;BME280;70295;40.182;44.498;2023-12-28T06:33:11;90705.34;;;9.66;50.05976
80869;BME280;70295;40.182;44.498;2023-12-28T06:35:11;90707.72;;;9.81;49.72383
80869;BME280;70295;40.182;44.498;2023-12-28T06:37:11;90709.34;;;9.79;49.10273
80869;BME280;70295;40.182;44.498;2023-12-28T06:39:11;90708.03;;;9.62;48.76387
80869;BME280;70295;40.182;44.498;2023-12-28T06:41:12;90706.38;;;9.44;48.78828
80869;BME280;70295;40.182;44.498;2023-12-28T06:43:11;90710;;;9.33;48.88496
80869;BME280;70295;40.182;44.498;2023-12-28T06:45:11;90712.2;;;9.24;49.07344
80869;BME280;70295;40.182;44.498;2023-12-28T06:47:11;90709.59;;;9.15;49.26094
80869;BME280;70295;40.182;44.498;2023-12-28T06:49:11;90705.19;;;9.06;49.43769
80869;BME280;70295;40.182;44.498;2023-12-28T06:53:11;90708.95;;;8.95;49.52363
80869;BME280;70295;40.182;44.498;2023-12-28T06:55:11;90708.98;;;8.91;49.5959
80869;BME280;70295;40.182;44.498;2023-12-28T06:57:11;90707.22;;;8.88;49.75703
80869;BME280;70295;40.182;44.498;2023-12-28T06:59:11;90709.38;;;8.81;49.81562
80869;BME280;70295;40.182;44.498;2023-12-28T07:01:11;90711.71;;;8.78;49.97773
80869;BME280;70295;40.182;44.498;2023-12-28T07:03:11;90709.77;;;8.77;50.05293
80869;BME280;70295;40.182;44.498;2023-12-28T07:05:11;90710.78;;;8.84;50.32637
80869;BME280;70295;40.182;44.498;2023-12-28T07:07:11;90708.34;;;9.12;50.65547
80869;BME280;70295;40.182;44.498;2023-12-28T07:09:11;90708.37;;;9.65;50.55293
80869;BME280;70295;40.182;44.498;2023-12-28T07:11:11;90707.2;;;10.23;49.72773
80869;BME280;70295;40.182;44.498;2023-12-28T07:13:11;90709.07;;;10.67;48.8625
80869;BME280;70295;40.182;44.498;2023-12-28T07:15:11;90711.02;;;10.98;48.0334
80869;BME280;70295;40.182;44.498;2023-12-28T07:17:11;90706.95;;;11.11;47.175
80869;BME280;70295;40.182;44.498;2023-12-28T07:19:11;90712.61;;;11.14;47.07832
80869;BME280;70295;40.182;44.498;2023-12-28T07:21:11;90715.59;;;11.18;46.35078
80869;BME280;70295;40.182;44.498;2023-12-28T07:23:11;90714.91;;;10.86;45.74043
80869;BME280;70295;40.182;44.498;2023-12-28T07:25:11;90718.53;;;10.48;45.97773
80869;BME280;70295;40.182;44.498;2023-12-28T07:27:11;90720.02;;;10.21;46.29121
80869;BME280;70295;40.182;44.498;2023-12-28T07:29:11;90723.75;;;9.98;46.56367
80869;BME280;70295;40.182;44.498;2023-12-28T07:31:11;90727.13;;;9.76;46.94746
80869;BME280;70295;40.182;44.498;2023-12-28T07:33:11;90716.23;;;9.6;47.39375
80869;BME280;70295;40.182;44.498;2023-12-28T07:35:11;90710.61;;;9.5;47.63594
80869;BME280;70295;40.182;44.498;2023-12-28T07:37:11;90704.63;;;9.41;47.76875
80869;BME280;70295;40.182;44.498;2023-12-28T07:39:11;90705.22;;;9.32;47.91426
80869;BME280;70295;40.182;44.498;2023-12-28T07:41:11;90705.6;;;9.26;48.05
80869;BME280;70295;40.182;44.498;2023-12-28T07:43:11;90697.45;;;9.23;48.14668
80869;BME280;70295;40.182;44.498;2023-12-28T07:45:11;90693;;;9.24;48.29023
80869;BME280;70295;40.182;44.498;2023-12-28T07:47:11;90699.05;;;9.23;48.23555
80869;BME280;70295;40.182;44.498;2023-12-28T07:49:11;90696.41;;;9.21;48.30976
80869;BME280;70295;40.182;44.498;2023-12-28T07:51:12;90690.55;;;9.19;48.36152
80869;BME280;70295;40.182;44.498;2023-12-28T07:53:11;90688.41;;;9.2;48.35176
80869;BME280;70295;40.182;44.498;2023-12-28T07:55:11;90690.36;;;9.21;48.37519
80869;BME280;70295;40.182;44.498;2023-12-28T07:57:11;90691.42;;;9.22;48.49726
80869;BME280;70295;40.182;44.498;2023-12-28T07:59:11;90691.95;;;9.25;48.66523
80869;BME280;70295;40.182;44.498;2023-12-28T08:01:11;90689.43;;;9.26;48.82148
80869;BME280;70295;40.182;44.498;2023-12-28T08:03:11;90690.84;;;9.27;49.0666
80869;BME280;70295;40.182;44.498;2023-12-28T08:05:11;90688.53;;;9.31;49.18086
80869;BME280;70295;40.182;44.498;2023-12-28T08:07:11;90693.64;;;9.37;49.12031
80869;BME280;70295;40.182;44.498;2023-12-28T08:09:11;90685.27;;;9.39;49.05586
80869;BME280;70295;40.182;44.498;2023-12-28T08:11:11;90686.33;;;9.41;48.96016
80869;BME280;70295;40.182;44.498;2023-12-28T08:13:11;90684.88;;;9.44;48.86543
80869;BME280;70295;40.182;44.498;2023-12-28T08:15:11;90678.14;;;9.45;48.77656
80869;BME280;70295;40.182;44.498;2023-12-28T08:17:11;90673.17;;;9.44;48.92988
80869;BME280;70295;40.182;44.498;2023-12-28T08:19:11;90674.56;;;9.45;48.94355
80869;BME280;70295;40.182;44.498;2023-12-28T08:21:11;90672.23;;;9.47;48.80195
80869;BME280;70295;40.182;44.498;2023-12-28T08:23:11;90677.77;;;9.48;48.78047
80869;BME280;70295;40.182;44.498;2023-12-28T08:25:11;90681.45;;;9.49;48.79316
80869;BME280;70295;40.182;44.498;2023-12-28T08:27:11;90674.7;;;9.51;48.8166
80869;BME280;70295;40.182;44.498;2023-12-28T08:29:11;90672.4;;;9.51;48.92793
80869;BME280;70295;40.182;44.498;2023-12-28T08:31:12;90673.27;;;9.52;48.92891
80869;BME280;70295;40.182;44.498;2023-12-28T08:33:11;90676.65;;;9.53;48.91914
80869;BME280;70295;40.182;44.498;2023-12-28T08:35:11;90672.55;;;9.54;48.80976
80869;BME280;70295;40.182;44.498;2023-12-28T08:37:11;90668.11;;;9.53;48.64277
80869;BME280;70295;40.182;44.498;2023-12-28T08:39:11;90667.41;;;9.55;48.42402
80869;BME280;70295;40.182;44.498;2023-12-28T08:43:11;90659.56;;;9.55;48.29219
80869;BME280;70295;40.182;44.498;2023-12-28T08:45:11;90655.64;;;9.57;48.08613
80869;BME280;70295;40.182;44.498;2023-12-28T08:47:11;90651.72;;;9.58;47.84394
80869;BME280;70295;40.182;44.498;2023-12-28T08:49:11;90648.88;;;9.59;47.7668
80869;BME280;70295;40.182;44.498;2023-12-28T08:51:11;90647.3;;;9.57;47.80879
80869;BME280;70295;40.182;44.498;2023-12-28T08:53:11;90655.14;;;9.55;48.00508
80869;BME280;70295;40.182;44.498;2023-12-28T08:55:11;90651.42;;;9.52;48.17988
80869;BME280;70295;40.182;44.498;2023-12-28T08:57:11;90656.06;;;9.5;48.47383
80869;BME280;70295;40.182;44.498;2023-12-28T08:59:11;90648.06;;;9.51;48.71797
80869;BME280;70295;40.182;44.498;2023-12-28T09:03:11;90634.02;;;9.51;48.8498
80869;BME280;70295;40.182;44.498;2023-12-28T09:05:11;90630.64;;;9.5;48.89375
80869;BME280;70295;40.182;44.498;2023-12-28T09:07:11;90623.38;;;9.49;48.90351
80869;BME280;70295;40.182;44.498;2023-12-28T09:09:11;90616.09;;;9.48;48.94648
80869;BME280;70295;40.182;44.498;2023-12-28T09:11:11;90614.48;;;9.48;48.94648
80869;BME280;70295;40.182;44.498;2023-12-28T09:13:14;90606.67;;;9.49;49.03535
80869;BME280;70295;40.182;44.498;2023-12-28T09:15:11;90595.3;;;9.49;49.09101
80869;BME280;70295;40.182;44.498;2023-12-28T09:17:11;90595.45;;;9.5;49.14668
80869;BME280;70295;40.182;44.498;2023-12-28T09:19:11;90591.37;;;9.51;49.09297
80869;BME280;70295;40.182;44.498;2023-12-28T09:21:11;90589.59;;;9.52;49.07344
80869;BME280;70295;40.182;44.498;2023-12-28T09:23:11;90589.04;;;9.53;49.06172
80869;BME280;70295;40.182;44.498;2023-12-28T09:25:11;90592.58;;;9.54;49.15156
80869;BME280;70295;40.182;44.498;2023-12-28T09:27:11;90592.05;;;9.56;49.16426
80869;BME280;70295;40.182;44.498;2023-12-28T09:29:11;90597.72;;;9.57;49.08906
80869;BME280;70295;40.182;44.498;2023-12-28T09:31:11;90604.47;;;9.58;48.96894
80869;BME280;70295;40.182;44.498;2023-12-28T09:33:11;90602.66;;;9.59;48.83809
80869;BME280;70295;40.182;44.498;2023-12-28T09:35:11;90605.31;;;9.61;48.72871
80869;BME280;70295;40.182;44.498;2023-12-28T09:37:11;90600.33;;;9.6;48.64082
80869;BME280;70295;40.182;44.498;2023-12-28T09:39:11;90601.07;;;9.6;48.4416
80869;BME280;70295;40.182;44.498;2023-12-28T09:41:12;90601.08;;;9.59;48.17598
80869;BME280;70295;40.182;44.498;2023-12-28T09:45:11;90610.13;;;9.59;47.93184
80869;BME280;70295;40.182;44.498;2023-12-28T09:47:11;90603.91;;;9.6;47.90156
80869;BME280;70295;40.182;44.498;2023-12-28T09:49:11;90600.51;;;9.62;47.81465
80869;BME280;70295;40.182;44.498;2023-12-28T09:51:11;90592.5;;;9.63;47.68281
80869;BME280;70295;40.182;44.498;2023-12-28T09:53:12;90599.07;;;9.63;47.67207
80869;BME280;70295;40.182;44.498;2023-12-28T09:55:11;90598.7;;;9.65;47.675
80869;BME280;70295;40.182;44.498;2023-12-28T09:57:11;90597.61;;;9.69;47.66816
80869;BME280;70295;40.182;44.498;2023-12-28T09:59:11;90589.2;;;9.73;47.56172
80869;BME280;70295;40.182;44.498;2023-12-28T10:01:11;90592.98;;;9.69;47.14863
80869;BME280;70295;40.182;44.498;2023-12-28T10:03:14;90589.66;;;9.64;47.22187
80869;BME280;70295;40.182;44.498;2023-12-28T10:05:14;90587.86;;;9.67;47.21309
80869;BME280;70295;40.182;44.498;2023-12-28T10:07:11;90583.59;;;9.66;46.9709
80869;BME280;70295;40.182;44.498;2023-12-28T10:09:11;90582.15;;;9.67;46.81562
80869;BME280;70295;40.182;44.498;2023-12-28T10:11:11;90573.61;;;9.69;46.74043
80869;BME280;70295;40.182;44.498;2023-12-28T10:13:11;90561.67;;;9.71;46.62129
80869;BME280;70295;40.182;44.498;2023-12-28T10:15:11;90557.21;;;9.73;46.62422
80869;BME280;70295;40.182;44.498;2023-12-28T10:17:11;90552.61;;;9.72;46.55684
80869;BME280;70295;40.182;44.498;2023-12-28T10:19:11;90546;;;9.74;46.5041
80869;BME280;70295;40.182;44.498;2023-12-28T10:21:11;90558.97;;;9.76;46.40644
80869;BME280;70295;40.182;44.498;2023-12-28T10:23:11;90549.16;;;9.77;46.28633
80869;BME280;70295;40.182;44.498;2023-12-28T10:25:11;90547.39;;;9.79;46.24434
80869;BME280;70295;40.182;44.498;2023-12-28T10:27:13;90541.86;;;9.8;46.02363
80869;BME280;70295;40.182;44.498;2023-12-28T10:29:11;90550.92;;;9.81;45.93769
80869;BME280;70295;40.182;44.498;2023-12-28T10:31:11;90555.89;;;9.81;45.8498